Time;durP1;ratioP1;P1;durP2;ratioP2;P2;SDS_P1;SDS_P2;PMS_P1;PMS_P2;Temp;Humidity;BMP_temperature;BMP_pressure;BME280_temperature;BME280_humidity;BME280_pressure;Samples;Min_cycle;Max_cycle;Signal;HPM_P1;HPM_P2
2022/07/20 00:01:20;;;;;;;8.02;2.67;;;;;;;;;;5034398;28;20109;-65
2022/07/20 00:03:45;;;;;;;8.23;3.08;;;;;;;;;;5026552;28;20105;-65
2022/07/20 00:06:11;;;;;;;10.35;2.88;;;;;;;;;;5021873;28;20017;-65
2022/07/20 00:11:20;;;;;;;5.50;2.58;;;;;;;;;;5015879;28;20526;-66
2022/07/20 00:14:06;;;;;;;7.85;2.75;;;;;;;;;;5045514;28;20028;-65
2022/07/20 00:16:32;;;;;;;6.65;2.65;;;;;;;;;;5034251;28;20099;-65
2022/07/20 00:18:58;;;;;;;8.88;2.80;;;;;;;;;;5028844;28;20088;-65
2022/07/20 00:21:23;;;;;;;7.85;2.70;;;;;;;;;;5019927;28;20020;-65
2022/07/20 00:23:48;;;;;;;10.10;2.85;;;;;;;;;;5014284;28;21714;-65
2022/07/20 00:26:14;;;;;;;10.48;2.80;;;;;;;;;;5022290;28;20049;-65
2022/07/20 00:28:39;;;;;;;7.57;2.90;;;;;;;;;;5028891;28;20017;-65
2022/07/20 00:31:04;;;;;;;7.65;3.25;;;;;;;;;;5038005;28;20028;-65
2022/07/20 00:33:30;;;;;;;7.78;2.55;;;;;;;;;;5026245;28;20029;-66
2022/07/20 00:35:55;;;;;;;8.00;2.90;;;;;;;;;;5027341;28;20035;-65
2022/07/20 00:38:20;;;;;;;11.32;2.78;;;;;;;;;;5017247;28;20049;-65
2022/07/20 00:40:45;;;;;;;8.70;2.90;;;;;;;;;;5028249;28;20017;-65
2022/07/20 00:43:11;;;;;;;11.77;2.70;;;;;;;;;;5031672;28;20025;-65
2022/07/20 00:45:36;;;;;;;10.20;2.90;;;;;;;;;;5032632;28;20491;-65
2022/07/20 00:48:01;;;;;;;5.90;2.78;;;;;;;;;;5032161;28;20466;-65
2022/07/20 00:50:27;;;;;;;16.73;2.90;;;;;;;;;;5036272;28;20026;-65
2022/07/20 00:52:52;;;;;;;9.75;3.00;;;;;;;;;;5032853;28;20036;-65
2022/07/20 00:55:18;;;;;;;9.07;3.33;;;;;;;;;;5032192;28;20034;-66
2022/07/20 00:57:43;;;;;;;4.80;2.80;;;;;;;;;;5033173;28;20029;-65
2022/07/20 01:00:09;;;;;;;5.90;3.00;;;;;;;;;;5033127;28;20103;-65
2022/07/20 01:02:35;;;;;;;7.32;2.83;;;;;;;;;;5033541;28;20096;-65
2022/07/20 01:05:00;;;;;;;7.68;3.45;;;;;;;;;;5032483;28;20164;-65
2022/07/20 01:07:25;;;;;;;9.68;3.08;;;;;;;;;;5033049;28;20071;-65
2022/07/20 01:09:51;;;;;;;5.25;2.80;;;;;;;;;;5032727;28;20033;-65
2022/07/20 01:12:16;;;;;;;8.15;3.28;;;;;;;;;;5031518;28;20033;-65
2022/07/20 01:14:41;;;;;;;6.75;3.25;;;;;;;;;;5032205;28;21671;-65
2022/07/20 01:17:07;;;;;;;8.40;2.90;;;;;;;;;;5033012;28;20037;-66
2022/07/20 01:19:32;;;;;;;9.75;3.22;;;;;;;;;;5025221;28;20075;-65
2022/07/20 01:21:57;;;;;;;7.20;3.10;;;;;;;;;;5045864;28;20040;-65
2022/07/20 01:24:22;;;;;;;7.88;2.90;;;;;;;;;;5031934;28;20120;-65
2022/07/20 01:26:48;;;;;;;8.48;3.20;;;;;;;;;;5036386;28;20071;-65
2022/07/20 01:29:13;;;;;;;8.40;2.90;;;;;;;;;;5032500;28;20496;-65
2022/07/20 01:31:39;;;;;;;8.98;2.97;;;;;;;;;;5034951;28;20095;-65
2022/07/20 01:34:04;;;;;;;5.90;2.78;;;;;;;;;;5031848;28;20029;-65
2022/07/20 01:36:30;;;;;;;8.15;2.72;;;;;;;;;;5034707;28;20376;-65
2022/07/20 01:38:55;;;;;;;7.20;2.70;;;;;;;;;;5031941;28;20022;-65
2022/07/20 01:41:20;;;;;;;6.72;3.35;;;;;;;;;;5031755;28;20049;-65
2022/07/20 01:43:46;;;;;;;6.78;2.67;;;;;;;;;;5030930;28;20021;-65
2022/07/20 01:46:11;;;;;;;6.85;2.88;;;;;;;;;;5030714;28;20440;-66
2022/07/20 01:48:36;;;;;;;10.32;2.92;;;;;;;;;;5025365;28;20038;-65
2022/07/20 01:51:02;;;;;;;7.95;3.17;;;;;;;;;;5030487;28;20031;-65
2022/07/20 01:53:27;;;;;;;6.50;2.70;;;;;;;;;;5031106;28;20429;-65
2022/07/20 01:55:52;;;;;;;6.68;2.78;;;;;;;;;;5031836;28;20032;-65
2022/07/20 01:58:18;;;;;;;6.47;3.00;;;;;;;;;;5032274;28;20037;-65
2022/07/20 02:00:43;;;;;;;7.88;3.00;;;;;;;;;;5033741;28;20378;-65
2022/07/20 02:03:08;;;;;;;15.15;3.03;;;;;;;;;;5031175;28;20033;-65
2022/07/20 02:05:34;;;;;;;11.38;2.70;;;;;;;;;;5021738;28;20049;-65
2022/07/20 02:07:59;;;;;;;8.98;3.33;;;;;;;;;;5019835;28;20033;-65
2022/07/20 02:10:24;;;;;;;9.05;3.28;;;;;;;;;;5031903;28;20076;-65
2022/07/20 02:12:50;;;;;;;12.95;3.15;;;;;;;;;;5031071;28;20634;-65
2022/07/20 02:16:14;;;;;;;6.82;2.70;;;;;;;;;;5030761;28;20025;-65
2022/07/20 02:18:04;;;;;;;9.88;3.03;;;;;;;;;;5030252;28;20156;-65
2022/07/20 02:20:29;;;;;;;7.25;2.90;;;;;;;;;;5032622;28;20021;-65
2022/07/20 02:22:54;;;;;;;9.05;3.17;;;;;;;;;;5030904;28;20033;-65
2022/07/20 02:25:19;;;;;;;7.90;3.10;;;;;;;;;;5030888;28;20026;-65
2022/07/20 02:27:45;;;;;;;6.10;3.10;;;;;;;;;;5032900;28;20374;-65
2022/07/20 02:30:10;;;;;;;5.47;2.92;;;;;;;;;;5031353;28;20036;-65
2022/07/20 02:32:35;;;;;;;8.50;2.78;;;;;;;;;;5030348;28;20068;-65
2022/07/20 02:35:00;;;;;;;8.40;2.90;;;;;;;;;;5029911;28;20018;-65
2022/07/20 02:37:26;;;;;;;6.35;3.22;;;;;;;;;;5033281;28;20009;-64
2022/07/20 02:39:51;;;;;;;8.55;3.10;;;;;;;;;;5030812;28;20025;-65
2022/07/20 02:42:16;;;;;;;5.93;3.08;;;;;;;;;;5031253;28;20026;-65
2022/07/20 02:44:41;;;;;;;11.25;3.10;;;;;;;;;;5031548;28;20072;-65
2022/07/20 02:47:06;;;;;;;11.23;3.30;;;;;;;;;;5030033;28;20057;-66
2022/07/20 02:49:32;;;;;;;10.38;3.05;;;;;;;;;;5029218;28;20453;-66
2022/07/20 02:51:57;;;;;;;8.55;3.00;;;;;;;;;;5030565;28;20402;-65
2022/07/20 02:54:23;;;;;;;7.50;2.63;;;;;;;;;;5029384;28;20041;-66
2022/07/20 02:56:48;;;;;;;8.85;2.72;;;;;;;;;;5031517;28;20056;-66
2022/07/20 02:59:13;;;;;;;8.75;3.40;;;;;;;;;;5030483;28;20501;-65
2022/07/20 03:01:39;;;;;;;10.93;3.33;;;;;;;;;;5030343;28;20033;-65
2022/07/20 03:04:04;;;;;;;7.28;3.00;;;;;;;;;;5030135;28;20132;-65
2022/07/20 03:06:29;;;;;;;9.65;2.90;;;;;;;;;;5030792;28;20115;-66
2022/07/20 03:08:54;;;;;;;8.60;3.00;;;;;;;;;;5028563;28;20163;-65
2022/07/20 03:11:19;;;;;;;10.88;3.00;;;;;;;;;;5033305;28;20079;-66
2022/07/20 03:13:45;;;;;;;10.45;3.05;;;;;;;;;;5037538;28;20151;-65
2022/07/20 03:16:10;;;;;;;10.38;2.65;;;;;;;;;;5030957;28;20474;-65
2022/07/20 03:18:35;;;;;;;9.70;2.95;;;;;;;;;;5030993;28;20465;-66
2022/07/20 03:21:00;;;;;;;18.77;2.90;;;;;;;;;;5030973;28;20396;-66
2022/07/20 03:23:26;;;;;;;7.43;3.15;;;;;;;;;;5029455;28;20512;-65
2022/07/20 03:25:51;;;;;;;13.38;3.40;;;;;;;;;;5030851;28;20402;-66
2022/07/20 03:28:18;;;;;;;7.90;3.08;;;;;;;;;;5030832;28;20099;-65
2022/07/20 03:30:43;;;;;;;11.68;3.28;;;;;;;;;;5030819;28;20029;-66
2022/07/20 03:33:08;;;;;;;8.68;2.95;;;;;;;;;;5030618;28;20070;-66
2022/07/20 03:35:34;;;;;;;7.63;3.03;;;;;;;;;;5034074;28;20047;-66
2022/07/20 03:37:59;;;;;;;7.95;2.70;;;;;;;;;;5034509;28;20025;-65
2022/07/20 03:40:24;;;;;;;12.13;3.50;;;;;;;;;;5034910;28;20029;-65
2022/07/20 03:42:49;;;;;;;6.65;2.75;;;;;;;;;;5034629;28;20029;-65
2022/07/20 03:45:14;;;;;;;10.05;2.90;;;;;;;;;;5034942;28;20048;-65
2022/07/20 03:47:40;;;;;;;10.90;2.88;;;;;;;;;;5034091;28;20021;-66
2022/07/20 03:50:05;;;;;;;10.60;3.25;;;;;;;;;;5034648;28;20029;-66
2022/07/20 03:52:30;;;;;;;10.48;3.03;;;;;;;;;;5034414;28;21220;-65
2022/07/20 03:54:56;;;;;;;7.80;3.05;;;;;;;;;;5035840;28;20028;-66
2022/07/20 03:57:21;;;;;;;5.72;2.75;;;;;;;;;;5036865;28;20028;-66
2022/07/20 03:59:46;;;;;;;8.27;3.15;;;;;;;;;;5035021;28;20060;-66
2022/07/20 04:02:11;;;;;;;11.15;3.20;;;;;;;;;;5034451;28;20017;-65
2022/07/20 04:04:37;;;;;;;10.10;3.35;;;;;;;;;;5034559;28;20032;-66
2022/07/20 04:07:02;;;;;;;8.57;3.00;;;;;;;;;;5034510;28;20439;-66
2022/07/20 04:09:46;;;;;;;8.63;2.88;;;;;;;;;;5034364;28;20075;-66
2022/07/20 04:12:20;;;;;;;8.75;3.00;;;;;;;;;;5034156;28;20100;-65
2022/07/20 04:14:46;;;;;;;8.80;3.00;;;;;;;;;;5034110;28;20021;-65
2022/07/20 04:17:11;;;;;;;7.30;2.90;;;;;;;;;;5033846;28;20507;-66
2022/07/20 04:19:37;;;;;;;11.88;2.60;;;;;;;;;;5034190;28;20025;-66
2022/07/20 04:22:02;;;;;;;10.75;2.80;;;;;;;;;;5033827;28;20091;-66
2022/07/20 04:24:28;;;;;;;6.70;2.70;;;;;;;;;;5033758;28;20474;-66
2022/07/20 04:26:53;;;;;;;9.55;2.60;;;;;;;;;;5036171;28;20064;-66
2022/07/20 04:29:19;;;;;;;7.50;2.63;;;;;;;;;;5035424;28;20316;-66
2022/07/20 04:31:44;;;;;;;12.10;2.80;;;;;;;;;;5034013;28;20021;-66
2022/07/20 04:34:10;;;;;;;6.00;2.78;;;;;;;;;;5033579;28;20393;-66
2022/07/20 04:36:35;;;;;;;5.10;2.65;;;;;;;;;;5034195;28;20381;-66
2022/07/20 04:39:00;;;;;;;6.45;2.70;;;;;;;;;;5033514;28;20025;-66
2022/07/20 04:41:25;;;;;;;7.43;3.00;;;;;;;;;;5033791;28;20053;-66
2022/07/20 04:43:51;;;;;;;8.75;2.90;;;;;;;;;;5033526;28;20028;-66
2022/07/20 04:46:16;;;;;;;5.00;2.50;;;;;;;;;;5030888;28;20088;-66
2022/07/20 04:48:41;;;;;;;8.98;2.70;;;;;;;;;;5037558;28;20481;-66
2022/07/20 04:51:06;;;;;;;8.43;3.00;;;;;;;;;;5033992;28;20103;-66
2022/07/20 04:53:32;;;;;;;8.15;2.75;;;;;;;;;;5033328;28;20470;-66
2022/07/20 04:55:57;;;;;;;9.18;2.92;;;;;;;;;;5033529;28;20026;-66
2022/07/20 04:58:22;;;;;;;12.38;2.80;;;;;;;;;;5033346;28;20049;-66
2022/07/20 05:00:47;;;;;;;10.82;2.50;;;;;;;;;;5033856;28;20087;-65
2022/07/20 05:03:12;;;;;;;7.90;2.47;;;;;;;;;;5035742;28;20055;-65
2022/07/20 05:05:38;;;;;;;8.88;2.78;;;;;;;;;;5040731;28;20032;-66
2022/07/20 05:08:03;;;;;;;10.52;2.58;;;;;;;;;;5033123;28;20033;-66
2022/07/20 05:10:29;;;;;;;10.50;2.80;;;;;;;;;;5033688;28;20492;-66
2022/07/20 05:12:55;;;;;;;10.95;2.90;;;;;;;;;;5033268;28;20083;-66
2022/07/20 05:15:23;;;;;;;7.90;2.75;;;;;;;;;;5036100;28;20033;-66
2022/07/20 05:17:48;;;;;;;10.75;2.70;;;;;;;;;;5031740;28;20049;-66
2022/07/20 05:20:13;;;;;;;9.75;3.13;;;;;;;;;;5032256;28;20059;-66
2022/07/20 05:22:38;;;;;;;9.20;2.90;;;;;;;;;;5032426;28;20021;-66
2022/07/20 05:25:04;;;;;;;9.13;3.72;;;;;;;;;;5029807;28;20037;-66
2022/07/20 05:27:29;;;;;;;9.38;2.70;;;;;;;;;;5032210;28;20037;-66
2022/07/20 05:29:54;;;;;;;7.97;2.67;;;;;;;;;;5032438;28;20013;-66
2022/07/20 05:32:20;;;;;;;11.93;3.25;;;;;;;;;;5032036;28;20025;-66
2022/07/20 05:34:45;;;;;;;9.30;2.67;;;;;;;;;;5033822;28;20028;-66
2022/07/20 05:37:10;;;;;;;9.80;2.85;;;;;;;;;;5031997;28;20096;-66
2022/07/20 05:39:35;;;;;;;10.65;2.42;;;;;;;;;;5032715;28;20021;-66
2022/07/20 05:42:00;;;;;;;6.22;2.30;;;;;;;;;;5031872;28;20044;-66
2022/07/20 05:44:26;;;;;;;15.68;3.38;;;;;;;;;;5028449;28;20018;-66
2022/07/20 05:46:51;;;;;;;8.88;2.42;;;;;;;;;;5029909;28;20022;-66
2022/07/20 05:49:16;;;;;;;7.35;2.53;;;;;;;;;;5030973;28;20094;-66
2022/07/20 05:51:41;;;;;;;9.00;2.50;;;;;;;;;;5032345;28;20168;-66
2022/07/20 05:54:07;;;;;;;9.77;2.50;;;;;;;;;;5032415;28;20063;-66
2022/07/20 05:56:32;;;;;;;15.55;2.50;;;;;;;;;;5031591;28;20163;-67
2022/07/20 05:58:57;;;;;;;5.35;2.33;;;;;;;;;;5031489;28;20053;-66
2022/07/20 06:01:23;;;;;;;7.80;3.03;;;;;;;;;;5030573;28;20021;-66
2022/07/20 06:03:48;;;;;;;8.07;2.08;;;;;;;;;;5032449;28;20478;-66
2022/07/20 06:06:13;;;;;;;9.20;2.42;;;;;;;;;;5032260;28;20025;-66
2022/07/20 06:08:38;;;;;;;12.65;2.30;;;;;;;;;;5031810;28;20029;-66
2022/07/20 06:11:04;;;;;;;6.55;2.15;;;;;;;;;;5031613;28;20106;-66
2022/07/20 06:13:29;;;;;;;8.00;2.33;;;;;;;;;;5031865;28;20033;-66
2022/07/20 06:15:54;;;;;;;7.18;2.30;;;;;;;;;;5031472;28;20037;-66
2022/07/20 06:18:19;;;;;;;10.60;2.50;;;;;;;;;;5031952;28;20490;-66
2022/07/20 06:20:45;;;;;;;9.35;2.28;;;;;;;;;;5030261;28;20056;-66
2022/07/20 06:23:10;;;;;;;10.98;2.35;;;;;;;;;;5031589;28;20036;-66
2022/07/20 06:25:35;;;;;;;6.03;2.40;;;;;;;;;;5031031;28;20272;-66
2022/07/20 06:28:00;;;;;;;7.03;2.30;;;;;;;;;;5037175;28;20035;-66
2022/07/20 06:30:26;;;;;;;8.13;2.10;;;;;;;;;;5035331;28;20500;-66
2022/07/20 06:32:51;;;;;;;7.18;2.05;;;;;;;;;;5032816;28;20018;-66
2022/07/20 06:35:16;;;;;;;10.18;2.00;;;;;;;;;;5030781;28;20080;-66
2022/07/20 06:37:41;;;;;;;7.07;2.38;;;;;;;;;;5029038;28;20053;-66
2022/07/20 06:40:07;;;;;;;9.20;2.50;;;;;;;;;;5030757;28;20048;-67
2022/07/20 06:42:32;;;;;;;7.55;2.00;;;;;;;;;;5034607;28;20025;-66
2022/07/20 06:44:58;;;;;;;10.65;2.17;;;;;;;;;;5027250;28;20033;-67
2022/07/20 06:47:23;;;;;;;14.98;2.22;;;;;;;;;;5022568;28;20497;-66
2022/07/20 06:49:48;;;;;;;9.05;2.08;;;;;;;;;;5031583;28;20028;-67
2022/07/20 06:52:13;;;;;;;10.77;2.00;;;;;;;;;;5031161;28;20045;-66
2022/07/20 06:54:39;;;;;;;9.68;2.22;;;;;;;;;;5030975;28;20460;-66
2022/07/20 06:57:04;;;;;;;10.93;2.40;;;;;;;;;;5031108;28;20024;-66
2022/07/20 06:59:29;;;;;;;7.18;2.08;;;;;;;;;;5031155;28;20068;-67
2022/07/20 07:01:54;;;;;;;10.10;2.05;;;;;;;;;;5031507;28;20104;-66
2022/07/20 07:04:20;;;;;;;6.68;2.03;;;;;;;;;;5031151;28;20071;-67
2022/07/20 07:06:45;;;;;;;5.35;1.80;;;;;;;;;;5031609;28;20128;-66
2022/07/20 07:09:11;;;;;;;6.00;1.73;;;;;;;;;;5030412;28;20017;-67
2022/07/20 07:11:36;;;;;;;7.90;2.05;;;;;;;;;;5031575;28;20096;-66
2022/07/20 07:14:02;;;;;;;9.13;2.00;;;;;;;;;;5030710;28;20052;-66
2022/07/20 07:16:27;;;;;;;10.88;1.83;;;;;;;;;;5031424;28;20052;-67
2022/07/20 07:18:53;;;;;;;6.40;1.60;;;;;;;;;;5030927;28;20484;-66
2022/07/20 07:21:18;;;;;;;11.50;1.90;;;;;;;;;;5031235;28;20030;-66
2022/07/20 07:23:45;;;;;;;10.48;2.10;;;;;;;;;;5031087;28;20021;-66
2022/07/20 07:26:10;;;;;;;9.18;2.00;;;;;;;;;;5030698;28;20040;-67
2022/07/20 07:28:36;;;;;;;4.97;1.88;;;;;;;;;;5030776;28;20025;-66
2022/07/20 07:31:01;;;;;;;7.20;1.60;;;;;;;;;;5031351;28;20083;-66
2022/07/20 07:33:27;;;;;;;6.77;2.00;;;;;;;;;;5030673;28;20454;-66
2022/07/20 07:35:52;;;;;;;8.60;2.20;;;;;;;;;;5031099;28;20768;-66
2022/07/20 07:38:18;;;;;;;7.97;1.90;;;;;;;;;;5030623;28;20018;-66
2022/07/20 07:40:43;;;;;;;7.80;1.80;;;;;;;;;;5031209;28;20100;-67
2022/07/20 07:43:08;;;;;;;10.57;2.10;;;;;;;;;;5030716;28;20018;-66
2022/07/20 07:45:34;;;;;;;8.23;1.80;;;;;;;;;;5031338;28;20264;-67
2022/07/20 07:47:59;;;;;;;5.57;1.85;;;;;;;;;;5030499;28;20339;-66
2022/07/20 07:50:24;;;;;;;6.47;1.90;;;;;;;;;;5030915;28;20044;-66
2022/07/20 07:52:49;;;;;;;8.85;1.80;;;;;;;;;;5030396;28;20272;-66
2022/07/20 07:55:15;;;;;;;8.17;2.33;;;;;;;;;;5030749;28;20489;-66
2022/07/20 07:57:41;;;;;;;5.70;1.80;;;;;;;;;;5030845;28;20720;-66
2022/07/20 08:00:07;;;;;;;7.93;1.98;;;;;;;;;;5030744;28;20254;-66
2022/07/20 08:02:33;;;;;;;6.78;1.80;;;;;;;;;;5030516;28;20112;-67
2022/07/20 08:04:58;;;;;;;9.70;1.70;;;;;;;;;;5030730;28;20687;-67
2022/07/20 08:07:23;;;;;;;5.83;1.80;;;;;;;;;;5030211;28;20017;-66
2022/07/20 08:09:48;;;;;;;6.07;1.90;;;;;;;;;;5030694;28;20071;-66
2022/07/20 08:12:13;;;;;;;8.40;1.90;;;;;;;;;;5030142;28;20260;-66
2022/07/20 08:14:39;;;;;;;7.20;1.70;;;;;;;;;;5010696;28;20168;-67
2022/07/20 08:17:04;;;;;;;6.37;1.67;;;;;;;;;;5010813;28;20331;-66
2022/07/20 08:19:30;;;;;;;5.68;1.98;;;;;;;;;;5029218;28;20255;-66
2022/07/20 08:21:55;;;;;;;6.68;2.00;;;;;;;;;;5033737;28;20032;-66
2022/07/20 08:24:21;;;;;;;7.80;1.80;;;;;;;;;;5034062;28;20116;-67
2022/07/20 08:26:46;;;;;;;4.77;1.90;;;;;;;;;;5034569;28;20014;-66
2022/07/20 08:29:11;;;;;;;6.00;1.70;;;;;;;;;;5034049;28;20264;-66
2022/07/20 08:31:36;;;;;;;8.53;1.90;;;;;;;;;;5034437;28;20593;-66
2022/07/20 08:34:02;;;;;;;6.05;1.85;;;;;;;;;;5033363;28;20256;-66
2022/07/20 08:36:27;;;;;;;5.63;1.92;;;;;;;;;;5034271;28;20037;-66
2022/07/20 08:38:52;;;;;;;9.30;2.30;;;;;;;;;;5033911;28;20125;-66
2022/07/20 08:41:18;;;;;;;4.97;1.90;;;;;;;;;;5034073;28;20036;-67
2022/07/20 08:43:43;;;;;;;4.95;2.00;;;;;;;;;;5033960;28;20112;-66
2022/07/20 08:46:08;;;;;;;6.00;2.30;;;;;;;;;;5033681;28;20489;-66
2022/07/20 08:48:37;;;;;;;4.90;2.10;;;;;;;;;;5032887;28;20532;-67
2022/07/20 08:51:02;;;;;;;6.38;1.85;;;;;;;;;;5033677;28;20070;-66
2022/07/20 08:53:27;;;;;;;6.18;2.20;;;;;;;;;;5033110;28;20511;-66
2022/07/20 08:55:53;;;;;;;6.53;2.30;;;;;;;;;;5035495;28;20587;-66
2022/07/20 08:58:19;;;;;;;6.00;2.10;;;;;;;;;;5033618;28;20617;-66
2022/07/20 09:00:44;;;;;;;5.68;2.25;;;;;;;;;;5035045;28;20337;-66
2022/07/20 09:03:10;;;;;;;10.77;1.92;;;;;;;;;;5033609;28;20038;-66
2022/07/20 09:05:37;;;;;;;8.10;2.00;;;;;;;;;;5032582;28;20025;-66
2022/07/20 09:08:03;;;;;;;6.22;1.88;;;;;;;;;;5035797;28;20029;-66
2022/07/20 09:10:30;;;;;;;5.95;2.25;;;;;;;;;;5036281;28;20018;-66
2022/07/20 09:12:57;;;;;;;5.38;2.10;;;;;;;;;;5035729;28;20044;-67
2022/07/20 09:15:28;;;;;;;7.65;2.00;;;;;;;;;;5033495;28;20075;-67
2022/07/20 09:18:12;;;;;;;9.02;2.30;;;;;;;;;;5029851;28;20022;-67
2022/07/20 09:20:39;;;;;;;4.82;2.00;;;;;;;;;;5032422;28;20021;-66
2022/07/20 09:23:10;;;;;;;5.28;2.05;;;;;;;;;;5031647;28;20025;-67
2022/07/20 09:25:35;;;;;;;6.13;2.00;;;;;;;;;;5032093;28;20389;-66
2022/07/20 09:28:01;;;;;;;7.03;2.20;;;;;;;;;;5029681;28;20044;-66
2022/07/20 09:30:26;;;;;;;4.68;2.05;;;;;;;;;;5031914;28;20363;-67
2022/07/20 09:33:01;;;;;;;8.10;2.25;;;;;;;;;;5030505;28;20104;-67
2022/07/20 09:35:28;;;;;;;7.10;2.30;;;;;;;;;;5029349;28;20044;-66
2022/07/20 09:37:58;;;;;;;8.48;2.20;;;;;;;;;;5030902;28;20355;-66
2022/07/20 09:40:24;;;;;;;6.40;2.20;;;;;;;;;;5032077;28;20025;-67
2022/07/20 09:42:49;;;;;;;6.97;2.38;;;;;;;;;;5035878;28;20076;-67
2022/07/20 09:45:18;;;;;;;8.93;2.40;;;;;;;;;;5031549;28;20029;-67
2022/07/20 09:48:01;;;;;;;6.13;2.42;;;;;;;;;;5030553;28;20037;-67
2022/07/20 09:50:30;;;;;;;6.15;2.38;;;;;;;;;;5035974;28;20025;-67
2022/07/20 09:52:56;;;;;;;6.75;2.50;;;;;;;;;;5032080;28;20046;-67
2022/07/20 09:55:22;;;;;;;6.47;2.45;;;;;;;;;;5032289;28;20052;-67
2022/07/20 09:57:49;;;;;;;5.00;2.20;;;;;;;;;;5032362;28;20060;-67
2022/07/20 10:00:15;;;;;;;8.43;2.45;;;;;;;;;;5032211;28;20104;-67
2022/07/20 10:02:40;;;;;;;10.02;2.53;;;;;;;;;;5030108;28;20113;-67
2022/07/20 10:05:06;;;;;;;4.82;2.20;;;;;;;;;;5031263;28;20091;-67
2022/07/20 10:07:32;;;;;;;8.20;2.10;;;;;;;;;;5034330;28;20079;-67
2022/07/20 10:09:58;;;;;;;9.18;2.55;;;;;;;;;;5031261;28;20424;-67
2022/07/20 10:12:23;;;;;;;6.63;2.30;;;;;;;;;;5030575;28;20037;-67
2022/07/20 10:14:51;;;;;;;7.28;2.50;;;;;;;;;;5029482;28;20025;-68
2022/07/20 10:17:17;;;;;;;7.30;2.20;;;;;;;;;;5031662;28;20105;-67
2022/07/20 10:19:42;;;;;;;7.85;2.50;;;;;;;;;;5031259;28;20458;-67
2022/07/20 10:22:11;;;;;;;7.20;2.35;;;;;;;;;;5030151;28;20083;-67
2022/07/20 10:24:38;;;;;;;7.15;2.17;;;;;;;;;;5030502;28;20017;-67
2022/07/20 10:27:16;;;;;;;6.25;2.40;;;;;;;;;;5029677;28;20040;-67
2022/07/20 10:29:41;;;;;;;5.13;2.28;;;;;;;;;;5030282;28;20022;-67
2022/07/20 10:32:10;;;;;;;7.80;2.60;;;;;;;;;;5037540;28;20465;-67
2022/07/20 10:34:42;;;;;;;9.05;2.60;;;;;;;;;;5042509;28;20252;-67
2022/07/20 10:37:34;;;;;;;6.45;2.35;;;;;;;;;;5028981;28;20063;-67
2022/07/20 10:40:02;;;;;;;6.00;2.50;;;;;;;;;;5012864;28;20059;-67
2022/07/20 10:42:28;;;;;;;7.57;2.50;;;;;;;;;;5032734;28;20028;-67
2022/07/20 10:44:54;;;;;;;5.82;2.50;;;;;;;;;;5034061;28;20022;-67
2022/07/20 10:47:38;;;;;;;7.25;2.75;;;;;;;;;;5033732;28;20083;-67
2022/07/20 10:50:04;;;;;;;6.28;2.58;;;;;;;;;;5030575;28;20036;-67
2022/07/20 10:52:30;;;;;;;8.55;2.67;;;;;;;;;;5029228;28;20428;-67
2022/07/20 10:54:56;;;;;;;7.40;2.45;;;;;;;;;;5033815;28;20385;-67
2022/07/20 10:57:21;;;;;;;6.07;3.17;;;;;;;;;;5033145;28;20021;-67
2022/07/20 10:59:58;;;;;;;10.77;2.67;;;;;;;;;;5030809;28;20535;-67
2022/07/20 11:02:24;;;;;;;6.13;2.65;;;;;;;;;;5032359;28;20380;-67
2022/07/20 11:04:49;;;;;;;8.37;2.80;;;;;;;;;;5032855;28;20029;-67
2022/07/20 11:07:31;;;;;;;10.63;3.40;;;;;;;;;;5030217;28;20276;-67
2022/07/20 11:09:56;;;;;;;7.60;2.55;;;;;;;;;;5025786;28;20287;-67
2022/07/20 11:12:29;;;;;;;8.60;2.80;;;;;;;;;;5028463;28;20025;-67
2022/07/20 11:14:55;;;;;;;6.30;2.70;;;;;;;;;;5034427;28;20025;-67
2022/07/20 11:17:20;;;;;;;8.00;3.13;;;;;;;;;;5030297;28;20021;-67
2022/07/20 11:19:46;;;;;;;9.50;3.22;;;;;;;;;;5034096;28;20072;-67
2022/07/20 11:22:11;;;;;;;10.18;3.65;;;;;;;;;;5028903;28;20028;-67
2022/07/20 11:24:37;;;;;;;8.00;3.08;;;;;;;;;;5030278;28;20025;-67
2022/07/20 11:27:14;;;;;;;11.03;3.27;;;;;;;;;;5030305;28;20531;-67
2022/07/20 11:29:49;;;;;;;8.52;3.38;;;;;;;;;;5032563;28;20825;-66
2022/07/20 11:32:14;;;;;;;9.60;3.33;;;;;;;;;;5033284;28;20112;-67
2022/07/20 11:34:47;;;;;;;10.15;3.22;;;;;;;;;;5025370;28;20421;-66
2022/07/20 11:37:13;;;;;;;8.90;3.40;;;;;;;;;;5030080;28;20027;-67
2022/07/20 11:39:39;;;;;;;10.65;3.40;;;;;;;;;;5041948;28;20021;-67
2022/07/20 11:42:14;;;;;;;7.97;3.10;;;;;;;;;;5029635;28;20466;-67
2022/07/20 11:44:39;;;;;;;8.07;3.33;;;;;;;;;;5029808;28;20366;-67
2022/07/20 11:47:05;;;;;;;10.63;3.83;;;;;;;;;;5030286;28;20031;-67
2022/07/20 11:49:30;;;;;;;9.88;3.75;;;;;;;;;;5031612;28;20025;-66
2022/07/20 11:51:57;;;;;;;9.05;3.28;;;;;;;;;;5033633;28;20477;-67
2022/07/20 11:54:24;;;;;;;12.35;3.75;;;;;;;;;;5030606;28;20026;-66
2022/07/20 11:56:50;;;;;;;9.95;3.17;;;;;;;;;;5034763;28;20033;-66
2022/07/20 11:59:15;;;;;;;11.15;3.70;;;;;;;;;;5032969;28;20025;-67
2022/07/20 12:01:41;;;;;;;8.40;3.58;;;;;;;;;;5032655;28;20025;-65
2022/07/20 12:04:11;;;;;;;13.88;3.55;;;;;;;;;;5035178;28;20112;-64
2022/07/20 12:06:38;;;;;;;9.45;3.33;;;;;;;;;;5028931;28;20025;-65
2022/07/20 12:09:03;;;;;;;8.85;3.85;;;;;;;;;;5032569;28;20037;-65
2022/07/20 12:11:28;;;;;;;10.38;4.05;;;;;;;;;;5033348;28;20043;-64
2022/07/20 12:13:54;;;;;;;11.47;4.30;;;;;;;;;;5033441;28;20071;-65
2022/07/20 12:16:19;;;;;;;9.82;4.93;;;;;;;;;;5034652;28;20286;-65
2022/07/20 12:18:47;;;;;;;15.02;4.97;;;;;;;;;;5034927;28;20021;-65
2022/07/20 12:21:14;;;;;;;11.35;5.20;;;;;;;;;;5034600;28;20096;-65
2022/07/20 12:23:40;;;;;;;10.50;5.18;;;;;;;;;;5034121;28;20101;-65
2022/07/20 12:26:25;;;;;;;11.60;6.00;;;;;;;;;;5034183;28;20018;-65
2022/07/20 12:28:50;;;;;;;11.02;5.47;;;;;;;;;;5034418;28;20378;-65
2022/07/20 12:31:17;;;;;;;12.73;5.80;;;;;;;;;;5034465;28;20097;-65
2022/07/20 12:34:01;;;;;;;9.63;5.53;;;;;;;;;;5034027;28;20032;-65
2022/07/20 12:36:45;;;;;;;12.52;5.82;;;;;;;;;;5034496;28;20033;-65
2022/07/20 12:39:11;;;;;;;12.63;5.40;;;;;;;;;;5033744;28;20026;-65
2022/07/20 12:41:37;;;;;;;12.75;6.03;;;;;;;;;;5033724;28;20513;-65
2022/07/20 12:44:21;;;;;;;11.70;6.30;;;;;;;;;;5033726;28;20028;-65
2022/07/20 12:46:46;;;;;;;11.02;5.93;;;;;;;;;;5034017;28;20108;-65
2022/07/20 12:49:17;;;;;;;11.43;6.47;;;;;;;;;;5035824;28;20040;-65
2022/07/20 12:51:43;;;;;;;14.18;6.32;;;;;;;;;;5032072;28;20272;-65
2022/07/20 12:54:08;;;;;;;11.63;6.27;;;;;;;;;;5037660;28;20025;-65
2022/07/20 12:56:34;;;;;;;17.42;7.00;;;;;;;;;;5032640;28;21926;-65
2022/07/20 12:59:00;;;;;;;12.43;6.93;;;;;;;;;;5032314;28;20026;-65
2022/07/20 13:01:25;;;;;;;14.20;7.10;;;;;;;;;;5032940;28;21140;-65
2022/07/20 13:03:51;;;;;;;13.90;7.53;;;;;;;;;;5031402;28;20018;-65
2022/07/20 13:06:16;;;;;;;13.13;7.23;;;;;;;;;;5032236;28;20030;-65
2022/07/20 13:08:42;;;;;;;13.10;6.80;;;;;;;;;;5033140;28;20336;-66
2022/07/20 13:11:07;;;;;;;17.02;7.20;;;;;;;;;;5036023;28;20315;-65
2022/07/20 13:13:32;;;;;;;14.93;6.95;;;;;;;;;;5032265;28;20613;-65
2022/07/20 13:15:58;;;;;;;17.23;7.40;;;;;;;;;;5032255;28;20037;-65
2022/07/20 13:18:23;;;;;;;12.95;6.68;;;;;;;;;;5033269;28;20268;-65
2022/07/20 13:20:48;;;;;;;11.85;7.07;;;;;;;;;;5044517;28;20021;-65
2022/07/20 13:23:14;;;;;;;12.25;7.85;;;;;;;;;;5034970;28;20021;-65
2022/07/20 13:25:39;;;;;;;12.63;7.05;;;;;;;;;;5032621;28;20033;-65
2022/07/20 13:28:05;;;;;;;11.88;6.82;;;;;;;;;;5032903;28;20018;-65
2022/07/20 13:30:30;;;;;;;14.15;7.18;;;;;;;;;;5034568;28;20510;-65
2022/07/20 13:32:56;;;;;;;12.23;7.23;;;;;;;;;;5033118;28;20025;-65
2022/07/20 13:35:21;;;;;;;14.33;7.23;;;;;;;;;;5032169;28;20307;-65
2022/07/20 13:37:46;;;;;;;13.43;7.50;;;;;;;;;;5041024;28;20556;-65
2022/07/20 13:40:12;;;;;;;12.50;6.82;;;;;;;;;;5031715;28;20045;-65
2022/07/20 13:42:38;;;;;;;14.52;7.30;;;;;;;;;;5031417;28;20387;-65
2022/07/20 13:45:03;;;;;;;14.30;7.32;;;;;;;;;;5032740;28;20509;-65
2022/07/20 13:47:29;;;;;;;14.05;7.93;;;;;;;;;;5035332;28;20044;-66
2022/07/20 13:49:54;;;;;;;10.70;6.93;;;;;;;;;;5032858;28;20025;-65
2022/07/20 13:52:19;;;;;;;15.17;6.67;;;;;;;;;;5032326;28;20108;-65
2022/07/20 13:54:44;;;;;;;11.05;6.85;;;;;;;;;;5032869;28;20303;-65
2022/07/20 13:57:10;;;;;;;13.87;7.83;;;;;;;;;;5032819;28;20020;-65
2022/07/20 13:59:35;;;;;;;13.70;7.97;;;;;;;;;;5032278;28;20260;-65
2022/07/20 14:02:00;;;;;;;14.53;7.63;;;;;;;;;;5031643;28;20399;-65
2022/07/20 14:04:25;;;;;;;16.30;8.30;;;;;;;;;;5029374;28;20811;-65
2022/07/20 14:06:51;;;;;;;14.50;7.70;;;;;;;;;;5031663;28;20670;-65
2022/07/20 14:09:16;;;;;;;15.80;8.70;;;;;;;;;;5032717;28;20322;-66
2022/07/20 14:11:41;;;;;;;14.10;8.00;;;;;;;;;;5030627;28;20076;-65
2022/07/20 14:14:07;;;;;;;16.30;8.50;;;;;;;;;;5029343;28;20030;-65
2022/07/20 14:16:33;;;;;;;13.63;8.40;;;;;;;;;;5032996;28;20324;-65
2022/07/20 14:18:58;;;;;;;15.93;8.00;;;;;;;;;;5031773;28;20029;-65
2022/07/20 14:21:24;;;;;;;14.30;8.57;;;;;;;;;;5030847;28;20404;-65
2022/07/20 14:23:52;;;;;;;12.63;8.25;;;;;;;;;;5025802;28;20026;-66
2022/07/20 14:26:18;;;;;;;16.85;8.60;;;;;;;;;;5029885;28;20048;-65
2022/07/20 14:28:44;;;;;;;15.85;8.38;;;;;;;;;;5031076;28;20219;-65
2022/07/20 14:31:09;;;;;;;12.35;8.00;;;;;;;;;;5030275;28;20060;-65
2022/07/20 14:33:34;;;;;;;17.98;8.30;;;;;;;;;;5030803;28;20115;-65
2022/07/20 14:36:00;;;;;;;16.13;8.25;;;;;;;;;;5030564;28;20018;-65